createdAt,value
2022-12-28T00:01:29.513Z,2.85
2022-12-28T00:05:31.046Z,2.90
2022-12-28T00:09:32.577Z,3.03
2022-12-28T00:13:35.327Z,3.11
2022-12-28T00:17:36.851Z,3.09
2022-12-28T00:21:38.687Z,3.13
2022-12-28T00:25:40.232Z,3.27
2022-12-28T00:29:41.771Z,3.31
2022-12-28T00:33:43.564Z,3.33
2022-12-28T00:37:45.150Z,3.41
2022-12-28T00:41:47.176Z,3.28
2022-12-28T00:45:49.177Z,3.40
2022-12-28T00:49:50.909Z,3.41
2022-12-28T00:53:52.742Z,3.41
2022-12-28T00:57:54.356Z,3.43
2022-12-28T01:01:55.996Z,3.36
2022-12-28T01:05:57.717Z,3.39
2022-12-28T01:09:59.537Z,3.46
2022-12-28T01:14:02.872Z,3.46
2022-12-28T01:18:04.654Z,3.37
2022-12-28T01:22:06.248Z,3.34
2022-12-28T01:26:08.298Z,3.36
2022-12-28T01:30:13.034Z,3.29
2022-12-28T01:34:14.881Z,3.32
2022-12-28T01:38:16.542Z,3.44
2022-12-28T01:42:19.845Z,3.33
2022-12-28T01:46:36.388Z,3.30
2022-12-28T01:50:37.984Z,3.18
2022-12-28T01:54:48.425Z,3.06
2022-12-28T01:58:50.186Z,2.96
2022-12-28T02:02:57.952Z,2.90
2022-12-28T02:06:59.722Z,2.87
2022-12-28T02:11:02.300Z,2.85
2022-12-28T02:15:04.719Z,2.75
2022-12-28T02:19:08.588Z,2.66
2022-12-28T02:23:27.293Z,2.64
2022-12-28T02:28:04.031Z,2.60
2022-12-28T02:32:25.900Z,2.71
2022-12-28T02:36:33.317Z,2.69
2022-12-28T02:41:00.139Z,2.66
2022-12-28T02:45:20.587Z,2.66
2022-12-28T02:49:44.585Z,2.65
2022-12-28T02:53:48.975Z,2.39
2022-12-28T02:58:22.780Z,2.38
2022-12-28T03:02:56.471Z,2.43
2022-12-28T03:07:31.900Z,2.37
2022-12-28T03:11:51.451Z,2.34
2022-12-28T03:15:54.246Z,2.25
2022-12-28T03:20:27.469Z,2.35
2022-12-28T03:24:50.858Z,2.32
2022-12-28T03:29:13.478Z,2.37
2022-12-28T03:33:15.306Z,2.36
2022-12-28T03:37:31.048Z,2.37
2022-12-28T03:41:41.918Z,2.20
2022-12-28T03:45:53.771Z,2.32
2022-12-28T03:49:55.659Z,2.18
2022-12-28T03:53:57.464Z,2.22
2022-12-28T03:57:59.124Z,2.16
2022-12-28T04:02:01.267Z,2.25
2022-12-28T04:06:03.312Z,2.16
2022-12-28T04:10:05.267Z,2.28
2022-12-28T04:14:10.652Z,2.21
2022-12-28T04:18:13.003Z,2.21
2022-12-28T04:22:14.696Z,2.23
2022-12-28T04:26:17.253Z,2.25
2022-12-28T04:30:18.890Z,2.18
2022-12-28T04:34:20.380Z,2.20
2022-12-28T04:38:21.998Z,2.25
2022-12-28T04:42:24.931Z,2.22
2022-12-28T04:46:26.529Z,2.23
2022-12-28T04:50:28.746Z,2.30
2022-12-28T04:54:30.522Z,2.37
2022-12-28T04:58:32.071Z,2.37
2022-12-28T05:02:33.725Z,2.21
2022-12-28T05:06:35.399Z,2.23
2022-12-28T05:10:37.032Z,2.30
2022-12-28T05:14:38.908Z,2.30
2022-12-28T05:18:40.616Z,2.28
2022-12-28T05:22:42.193Z,2.25
2022-12-28T05:26:43.730Z,2.34
2022-12-28T05:30:48.489Z,2.41
2022-12-28T05:34:50.062Z,2.49
2022-12-28T05:38:52.925Z,2.41
2022-12-28T05:42:54.556Z,2.47
2022-12-28T05:46:56.144Z,2.43
2022-12-28T05:51:02.772Z,2.55
2022-12-28T05:55:04.755Z,2.55
2022-12-28T05:59:09.186Z,2.53
2022-12-28T06:03:10.843Z,2.62
2022-12-28T06:07:12.625Z,2.67
2022-12-28T06:11:17.485Z,2.64
2022-12-28T06:15:19.028Z,2.71
2022-12-28T06:19:20.615Z,2.77
2022-12-28T06:23:23.833Z,2.78
2022-12-28T06:27:25.307Z,2.87
2022-12-28T06:31:29.501Z,2.84
2022-12-28T06:35:31.131Z,2.95
2022-12-28T06:39:32.629Z,3.04
2022-12-28T06:43:39.037Z,3.07
2022-12-28T06:47:40.659Z,3.01
2022-12-28T06:51:42.820Z,2.87
2022-12-28T06:55:52.686Z,2.91
2022-12-28T06:59:54.015Z,2.94
2022-12-28T07:03:58.131Z,2.87
2022-12-28T07:07:59.861Z,2.88
2022-12-28T07:12:01.431Z,2.89
2022-12-28T07:16:13.095Z,2.89
2022-12-28T07:20:14.666Z,2.89
2022-12-28T07:24:16.176Z,2.87
2022-12-28T07:28:17.763Z,2.85
2022-12-28T07:32:19.307Z,2.86
2022-12-28T07:36:22.163Z,2.95
2022-12-28T07:40:23.669Z,3.04
2022-12-28T07:44:29.368Z,3.01
2022-12-28T07:48:32.713Z,3.12
2022-12-28T07:52:36.153Z,3.18
2022-12-28T08:00:38.172Z,3.18
2022-12-28T08:04:39.697Z,3.30
2022-12-28T08:08:43.615Z,3.34
2022-12-28T08:12:45.080Z,3.34
2022-12-28T08:16:46.602Z,3.38
2022-12-28T08:20:48.141Z,3.43
2022-12-28T08:24:49.588Z,3.51
2022-12-28T08:28:54.268Z,3.51
2022-12-28T08:32:55.823Z,3.55
2022-12-28T08:36:57.420Z,3.62
2022-12-28T08:41:01.109Z,3.71
2022-12-28T08:45:02.611Z,3.74
2022-12-28T08:49:05.839Z,3.82
2022-12-28T08:53:07.618Z,4.03
2022-12-28T08:57:09.180Z,3.94
2022-12-28T09:01:14.556Z,4.07
2022-12-28T09:05:16.154Z,4.13
2022-12-28T09:09:19.807Z,4.19
2022-12-28T09:13:22.126Z,4.32
2022-12-28T09:17:23.730Z,4.30
2022-12-28T09:21:29.548Z,4.67
2022-12-28T09:25:31.011Z,4.41
2022-12-28T09:29:32.498Z,4.35
2022-12-28T09:34:32.116Z,4.32
2022-12-28T09:38:14.689Z,4.23
2022-12-28T09:42:23.605Z,4.32
2022-12-28T09:46:25.381Z,4.42
2022-12-28T09:50:32.913Z,4.44
2022-12-28T09:54:34.560Z,4.57
2022-12-28T09:58:42.818Z,4.51
2022-12-28T10:02:52.148Z,4.57
2022-12-28T10:06:53.778Z,4.68
2022-12-28T10:10:59.529Z,4.78
2022-12-28T10:15:01.134Z,4.86
2022-12-28T10:19:05.939Z,5.02
2022-12-28T10:23:07.937Z,5.10
2022-12-28T10:27:23.937Z,5.13
2022-12-28T10:31:36.860Z,5.20
2022-12-28T10:35:42.620Z,5.38
2022-12-28T10:39:53.877Z,5.29
2022-12-28T10:44:29.240Z,5.27
2022-12-28T10:48:23.856Z,5.31
2022-12-28T10:52:26.902Z,5.40
2022-12-28T10:56:30.788Z,5.35
2022-12-28T11:00:32.328Z,5.51
2022-12-28T11:04:34.220Z,5.51
2022-12-28T11:08:36.253Z,5.66
2022-12-28T11:12:43.418Z,5.80
2022-12-28T11:16:45.247Z,5.90
2022-12-28T11:20:49.679Z,6.05
2022-12-28T11:24:51.559Z,6.15
2022-12-28T11:28:53.885Z,6.09
2022-12-28T11:33:03.099Z,6.22
2022-12-28T11:37:04.663Z,6.32
2022-12-28T11:41:06.609Z,6.38
2022-12-28T11:45:36.282Z,6.34
2022-12-28T11:49:37.780Z,6.43
2022-12-28T11:53:45.070Z,6.42
2022-12-28T11:57:46.653Z,6.36
2022-12-28T12:01:50.449Z,6.47
2022-12-28T12:05:52.434Z,6.48
2022-12-28T12:10:33.667Z,6.73
2022-12-28T12:14:39.471Z,6.74
2022-12-28T12:18:51.214Z,6.75
2022-12-28T12:23:01.740Z,6.87
2022-12-28T12:27:15.474Z,7.18
2022-12-28T12:31:31.603Z,7.48
2022-12-28T12:36:05.964Z,7.20
2022-12-28T12:40:19.601Z,7.05
2022-12-28T12:44:40.042Z,7.18
2022-12-28T12:49:03.184Z,7.23
2022-12-28T12:53:24.854Z,7.43
2022-12-28T12:58:00.240Z,7.19
2022-12-28T13:02:16.966Z,7.47
2022-12-28T13:06:23.117Z,7.67
2022-12-28T13:10:36.470Z,7.84
2022-12-28T13:14:37.972Z,7.83
2022-12-28T13:18:46.828Z,7.51
2022-12-28T13:22:48.952Z,7.33
2022-12-28T13:26:51.642Z,7.15
2022-12-28T13:30:59.355Z,7.19
2022-12-28T13:35:01.259Z,7.50
2022-12-28T13:39:04.173Z,7.98
2022-12-28T13:43:42.528Z,7.88
2022-12-28T13:47:49.189Z,7.85
2022-12-28T13:51:53.483Z,7.61
2022-12-28T13:56:02.291Z,7.60
2022-12-28T14:00:05.357Z,7.59
2022-12-28T14:04:50.732Z,7.45
2022-12-28T14:08:38.689Z,7.21
2022-12-28T14:12:41.036Z,7.20
2022-12-28T14:16:42.868Z,7.27
2022-12-28T14:20:52.007Z,7.04
2022-12-28T14:25:10.845Z,6.90
2022-12-28T14:29:18.496Z,6.75
2022-12-28T14:33:24.965Z,6.72
2022-12-28T14:37:40.362Z,6.73
2022-12-28T14:41:47.005Z,6.63
2022-12-28T14:46:04.886Z,6.74
2022-12-28T14:50:30.579Z,6.75
2022-12-28T14:54:34.441Z,6.68
2022-12-28T14:58:51.090Z,6.70
2022-12-28T15:02:54.848Z,6.76
2022-12-28T15:06:56.439Z,6.76
2022-12-28T15:10:59.793Z,6.76
2022-12-28T15:15:01.268Z,6.58
2022-12-28T15:19:02.908Z,6.69
2022-12-28T15:23:05.291Z,6.69
2022-12-28T15:27:06.898Z,6.58
2022-12-28T15:31:14.637Z,6.80
2022-12-28T15:35:16.344Z,6.78
2022-12-28T15:39:17.887Z,6.82
2022-12-28T15:43:19.375Z,6.80
2022-12-28T15:47:21.027Z,6.93
2022-12-28T15:51:22.553Z,7.01
2022-12-28T15:55:24.037Z,6.98
2022-12-28T15:59:26.609Z,6.99
2022-12-28T16:03:28.087Z,7.01
2022-12-28T16:07:29.699Z,6.92
2022-12-28T16:11:34.016Z,6.97
2022-12-28T16:15:35.502Z,7.10
2022-12-28T16:19:36.962Z,6.96
2022-12-28T16:23:40.692Z,7.02
2022-12-28T16:27:42.186Z,7.10
2022-12-28T16:31:47.471Z,7.12
2022-12-28T16:35:53.009Z,7.05
2022-12-28T16:39:57.423Z,7.11
2022-12-28T16:44:04.879Z,7.09
2022-12-28T16:48:09.584Z,7.07
2022-12-28T16:52:11.094Z,7.03
2022-12-28T16:56:12.611Z,7.12
2022-12-28T17:00:14.328Z,7.04
2022-12-28T17:04:16.216Z,6.88
2022-12-28T17:08:18.499Z,6.89
2022-12-28T17:12:19.932Z,6.85
2022-12-28T17:16:21.545Z,6.79
2022-12-28T17:20:23.203Z,6.74
2022-12-28T17:24:24.669Z,7.34
2022-12-28T17:28:26.097Z,6.77
2022-12-28T17:32:27.573Z,6.75
2022-12-28T17:36:29.369Z,7.03
2022-12-28T17:40:30.853Z,6.87
2022-12-28T17:44:32.891Z,6.96
2022-12-28T17:48:34.454Z,6.98
2022-12-28T17:52:35.995Z,6.95
2022-12-28T17:56:37.684Z,6.97
2022-12-28T18:00:39.124Z,7.01
2022-12-28T18:04:43.587Z,7.01
2022-12-28T18:08:45.114Z,7.04
2022-12-28T18:12:46.882Z,6.99
2022-12-28T18:16:48.731Z,7.03
2022-12-28T18:20:58.937Z,7.07
2022-12-28T18:25:00.560Z,7.13
2022-12-28T18:29:01.974Z,7.08
2022-12-28T18:33:03.644Z,6.96
2022-12-28T18:37:05.144Z,6.93
2022-12-28T18:41:06.589Z,6.95
2022-12-28T18:45:09.025Z,7.00
2022-12-28T18:49:10.608Z,6.93
2022-12-28T18:53:12.049Z,6.96
2022-12-28T18:57:13.583Z,6.90
2022-12-28T19:01:48.071Z,6.89
2022-12-28T19:05:39.511Z,6.86
2022-12-28T19:10:04.967Z,6.79
2022-12-28T19:14:12.594Z,6.60
2022-12-28T19:18:14.031Z,6.44
2022-12-28T19:22:15.488Z,6.49
2022-12-28T19:26:16.910Z,6.39
2022-12-28T19:30:18.772Z,6.37
2022-12-28T19:34:20.603Z,6.43
2022-12-28T19:38:22.190Z,6.35
2022-12-28T19:42:23.648Z,6.22
2022-12-28T19:46:31.332Z,6.30
2022-12-28T19:50:33.215Z,6.27
2022-12-28T19:54:34.826Z,6.30
2022-12-28T19:58:38.896Z,6.35
2022-12-28T20:02:40.505Z,6.28
2022-12-28T20:06:43.793Z,6.25
2022-12-28T20:10:45.306Z,6.23
2022-12-28T20:14:46.824Z,6.24
2022-12-28T20:18:49.766Z,6.24
2022-12-28T20:22:51.246Z,6.19
2022-12-28T20:26:57.988Z,6.16
2022-12-28T20:31:05.824Z,6.11
2022-12-28T20:35:07.541Z,6.10
2022-12-28T20:39:10.172Z,6.08
2022-12-28T20:43:23.866Z,6.25
2022-12-28T20:47:25.972Z,6.26
2022-12-28T20:51:28.209Z,6.29
2022-12-28T20:55:29.779Z,6.67
2022-12-28T20:59:31.213Z,6.62
2022-12-28T21:03:33.202Z,6.47
2022-12-28T21:07:34.695Z,6.46
2022-12-28T21:11:36.136Z,6.46
2022-12-28T21:15:40.587Z,6.49
2022-12-28T21:19:42.317Z,6.58
2022-12-28T21:23:43.937Z,6.54
2022-12-28T21:27:45.383Z,6.48
2022-12-28T21:31:47.092Z,6.47
2022-12-28T21:35:58.653Z,6.45
2022-12-28T21:40:00.510Z,6.41
2022-12-28T21:44:01.971Z,6.50
2022-12-28T21:48:03.606Z,6.48
2022-12-28T21:52:05.133Z,6.51
2022-12-28T21:56:12.916Z,6.49
2022-12-28T22:00:34.573Z,6.43
2022-12-28T22:05:01.769Z,6.51
2022-12-28T22:09:22.731Z,6.65
2022-12-28T22:13:24.307Z,6.70
2022-12-28T22:17:25.911Z,6.74
2022-12-28T22:21:28.249Z,6.79
2022-12-28T22:25:31.049Z,6.88
2022-12-28T22:29:32.817Z,6.85
2022-12-28T22:37:42.994Z,7.08
2022-12-28T22:41:44.465Z,7.18
2022-12-28T22:45:45.973Z,7.15
2022-12-28T22:49:47.501Z,7.30
2022-12-28T22:53:49.875Z,7.38
2022-12-28T22:57:51.374Z,7.31
2022-12-28T23:01:53.602Z,7.16
2022-12-28T23:05:55.170Z,7.19
2022-12-28T23:09:56.691Z,7.08
2022-12-28T23:14:17.159Z,7.05
2022-12-28T23:18:36.966Z,6.93
2022-12-28T23:22:57.182Z,6.87
2022-12-28T23:27:18.491Z,6.85
2022-12-28T23:31:19.988Z,6.89
2022-12-28T23:35:23.352Z,6.85
2022-12-28T23:39:24.881Z,6.76
2022-12-28T23:43:26.307Z,6.68
2022-12-28T23:47:27.936Z,6.70
2022-12-28T23:51:29.459Z,6.66
2022-12-28T23:55:30.946Z,6.79
2022-12-28T23:59:32.475Z,6.76
